sensor_id;sensor_type;location;lat;lon;timestamp;P1;durP1;ratioP1;P2;durP2;ratioP2
43986;SDS011;29650;47.378;8.300;2023-05-27T00:01:20;6.78;;;4.32;;
43986;SDS011;29650;47.378;8.300;2023-05-27T00:04:01;8.18;;;3.55;;
43986;SDS011;29650;47.378;8.300;2023-05-27T00:06:36;5.57;;;3.22;;
43986;SDS011;29650;47.378;8.300;2023-05-27T00:09:04;8.95;;;4.40;;
43986;SDS011;29650;47.378;8.300;2023-05-27T00:11:31;7.57;;;4.25;;
43986;SDS011;29650;47.378;8.300;2023-05-27T00:13:58;12.85;;;4.80;;
43986;SDS011;29650;47.378;8.300;2023-05-27T00:16:27;7.38;;;3.88;;
43986;SDS011;29650;47.378;8.300;2023-05-27T00:18:58;10.18;;;4.07;;
43986;SDS011;29650;47.378;8.300;2023-05-27T00:21:34;10.55;;;4.80;;
43986;SDS011;29650;47.378;8.300;2023-05-27T00:24:01;8.43;;;4.35;;
43986;SDS011;29650;47.378;8.300;2023-05-27T00:26:30;9.23;;;4.75;;
43986;SDS011;29650;47.378;8.300;2023-05-27T00:28:57;6.95;;;4.40;;
43986;SDS011;29650;47.378;8.300;2023-05-27T00:31:24;6.40;;;3.70;;
43986;SDS011;29650;47.378;8.300;2023-05-27T00:33:51;7.93;;;4.65;;
43986;SDS011;29650;47.378;8.300;2023-05-27T00:36:18;10.43;;;4.30;;
43986;SDS011;29650;47.378;8.300;2023-05-27T00:38:45;10.48;;;4.32;;
43986;SDS011;29650;47.378;8.300;2023-05-27T00:41:12;9.23;;;3.85;;
43986;SDS011;29650;47.378;8.300;2023-05-27T00:43:46;4.50;;;3.60;;
43986;SDS011;29650;47.378;8.300;2023-05-27T00:46:27;7.13;;;4.28;;
43986;SDS011;29650;47.378;8.300;2023-05-27T00:48:54;7.55;;;3.50;;
43986;SDS011;29650;47.378;8.300;2023-05-27T00:51:21;8.77;;;4.32;;
43986;SDS011;29650;47.378;8.300;2023-05-27T00:53:48;8.85;;;3.75;;
43986;SDS011;29650;47.378;8.300;2023-05-27T00:56:16;7.80;;;4.10;;
43986;SDS011;29650;47.378;8.300;2023-05-27T00:58:43;7.93;;;4.00;;
43986;SDS011;29650;47.378;8.300;2023-05-27T01:01:11;12.15;;;4.32;;
43986;SDS011;29650;47.378;8.300;2023-05-27T01:03:39;6.82;;;4.20;;
43986;SDS011;29650;47.378;8.300;2023-05-27T01:06:08;13.35;;;4.57;;
43986;SDS011;29650;47.378;8.300;2023-05-27T01:08:50;11.25;;;4.05;;
43986;SDS011;29650;47.378;8.300;2023-05-27T01:11:28;9.88;;;3.97;;
43986;SDS011;29650;47.378;8.300;2023-05-27T01:14:00;7.18;;;4.30;;
43986;SDS011;29650;47.378;8.300;2023-05-27T01:16:38;6.93;;;4.55;;
43986;SDS011;29650;47.378;8.300;2023-05-27T01:19:11;5.25;;;3.58;;
43986;SDS011;29650;47.378;8.300;2023-05-27T01:21:41;8.48;;;4.20;;
43986;SDS011;29650;47.378;8.300;2023-05-27T01:24:18;7.82;;;4.53;;
43986;SDS011;29650;47.378;8.300;2023-05-27T01:26:46;10.07;;;4.25;;
43986;SDS011;29650;47.378;8.300;2023-05-27T01:29:13;6.80;;;4.00;;
43986;SDS011;29650;47.378;8.300;2023-05-27T01:31:49;9.15;;;3.97;;
43986;SDS011;29650;47.378;8.300;2023-05-27T01:34:23;7.28;;;3.50;;
43986;SDS011;29650;47.378;8.300;2023-05-27T01:36:56;8.32;;;3.85;;
43986;SDS011;29650;47.378;8.300;2023-05-27T01:39:29;8.77;;;3.88;;
43986;SDS011;29650;47.378;8.300;2023-05-27T01:41:57;5.75;;;4.10;;
43986;SDS011;29650;47.378;8.300;2023-05-27T01:44:25;6.50;;;3.75;;
43986;SDS011;29650;47.378;8.300;2023-05-27T01:46:59;7.10;;;4.40;;
43986;SDS011;29650;47.378;8.300;2023-05-27T01:49:27;5.32;;;4.15;;
43986;SDS011;29650;47.378;8.300;2023-05-27T01:51:54;6.97;;;3.65;;
43986;SDS011;29650;47.378;8.300;2023-05-27T01:54:26;4.72;;;3.20;;
43986;SDS011;29650;47.378;8.300;2023-05-27T01:56:54;7.63;;;4.10;;
43986;SDS011;29650;47.378;8.300;2023-05-27T01:59:21;12.55;;;5.15;;
43986;SDS011;29650;47.378;8.300;2023-05-27T02:01:48;7.10;;;4.03;;
43986;SDS011;29650;47.378;8.300;2023-05-27T02:04:17;14.23;;;4.38;;
43986;SDS011;29650;47.378;8.300;2023-05-27T02:06:44;16.98;;;3.92;;
43986;SDS011;29650;47.378;8.300;2023-05-27T02:09:20;7.57;;;4.65;;
43986;SDS011;29650;47.378;8.300;2023-05-27T02:11:47;9.93;;;3.70;;
43986;SDS011;29650;47.378;8.300;2023-05-27T02:14:15;6.43;;;4.10;;
43986;SDS011;29650;47.378;8.300;2023-05-27T02:16:46;11.10;;;4.18;;
43986;SDS011;29650;47.378;8.300;2023-05-27T02:19:14;9.52;;;4.40;;
43986;SDS011;29650;47.378;8.300;2023-05-27T02:21:41;7.40;;;4.20;;
43986;SDS011;29650;47.378;8.300;2023-05-27T02:24:08;10.25;;;4.18;;
43986;SDS011;29650;47.378;8.300;2023-05-27T02:26:35;8.45;;;4.03;;
43986;SDS011;29650;47.378;8.300;2023-05-27T02:29:02;11.65;;;4.63;;
43986;SDS011;29650;47.378;8.300;2023-05-27T02:31:31;11.63;;;4.53;;
43986;SDS011;29650;47.378;8.300;2023-05-27T02:33:58;6.50;;;3.40;;
43986;SDS011;29650;47.378;8.300;2023-05-27T02:36:25;10.95;;;4.72;;
43986;SDS011;29650;47.378;8.300;2023-05-27T02:38:52;9.43;;;4.40;;
43986;SDS011;29650;47.378;8.300;2023-05-27T02:41:21;8.30;;;3.42;;
43986;SDS011;29650;47.378;8.300;2023-05-27T02:43:48;8.68;;;4.47;;
43986;SDS011;29650;47.378;8.300;2023-05-27T02:46:15;8.52;;;4.60;;
43986;SDS011;29650;47.378;8.300;2023-05-27T02:48:43;6.07;;;3.83;;
43986;SDS011;29650;47.378;8.300;2023-05-27T02:51:11;6.10;;;4.00;;
43986;SDS011;29650;47.378;8.300;2023-05-27T02:53:38;10.10;;;4.07;;
43986;SDS011;29650;47.378;8.300;2023-05-27T02:56:05;10.98;;;3.85;;
43986;SDS011;29650;47.378;8.300;2023-05-27T02:58:32;17.13;;;4.40;;
43986;SDS011;29650;47.378;8.300;2023-05-27T03:00:59;9.82;;;4.30;;
43986;SDS011;29650;47.378;8.300;2023-05-27T03:03:26;12.15;;;4.68;;
43986;SDS011;29650;47.378;8.300;2023-05-27T03:05:55;8.32;;;4.15;;
43986;SDS011;29650;47.378;8.300;2023-05-27T03:08:22;9.32;;;4.00;;
43986;SDS011;29650;47.378;8.300;2023-05-27T03:10:49;7.63;;;4.13;;
43986;SDS011;29650;47.378;8.300;2023-05-27T03:13:17;7.50;;;3.88;;
43986;SDS011;29650;47.378;8.300;2023-05-27T03:15:44;13.98;;;4.88;;
43986;SDS011;29650;47.378;8.300;2023-05-27T03:18:11;6.00;;;3.58;;
43986;SDS011;29650;47.378;8.300;2023-05-27T03:20:38;9.88;;;4.57;;
43986;SDS011;29650;47.378;8.300;2023-05-27T03:23:06;6.43;;;4.13;;
43986;SDS011;29650;47.378;8.300;2023-05-27T03:25:33;7.78;;;4.00;;
43986;SDS011;29650;47.378;8.300;2023-05-27T03:28:00;8.00;;;3.97;;
43986;SDS011;29650;47.378;8.300;2023-05-27T03:30:27;6.72;;;3.97;;
43986;SDS011;29650;47.378;8.300;2023-05-27T03:32:54;10.82;;;4.00;;
43986;SDS011;29650;47.378;8.300;2023-05-27T03:35:21;9.07;;;3.90;;
43986;SDS011;29650;47.378;8.300;2023-05-27T03:37:48;6.10;;;3.50;;
43986;SDS011;29650;47.378;8.300;2023-05-27T03:40:16;8.43;;;3.63;;
43986;SDS011;29650;47.378;8.300;2023-05-27T03:42:43;8.95;;;3.97;;
43986;SDS011;29650;47.378;8.300;2023-05-27T03:45:10;5.15;;;3.40;;
43986;SDS011;29650;47.378;8.300;2023-05-27T03:47:37;8.73;;;4.25;;
43986;SDS011;29650;47.378;8.300;2023-05-27T03:50:04;9.95;;;4.07;;
43986;SDS011;29650;47.378;8.300;2023-05-27T03:52:32;9.43;;;4.35;;
43986;SDS011;29650;47.378;8.300;2023-05-27T03:54:59;10.15;;;4.13;;
43986;SDS011;29650;47.378;8.300;2023-05-27T03:57:27;9.07;;;4.30;;
43986;SDS011;29650;47.378;8.300;2023-05-27T03:59:54;7.70;;;4.20;;
43986;SDS011;29650;47.378;8.300;2023-05-27T04:02:21;6.70;;;3.78;;
43986;SDS011;29650;47.378;8.300;2023-05-27T04:04:48;12.68;;;4.75;;
43986;SDS011;29650;47.378;8.300;2023-05-27T04:07:16;7.82;;;3.60;;
43986;SDS011;29650;47.378;8.300;2023-05-27T04:09:51;14.48;;;4.32;;
43986;SDS011;29650;47.378;8.300;2023-05-27T04:12:18;12.57;;;3.63;;
43986;SDS011;29650;47.378;8.300;2023-05-27T04:14:47;11.90;;;3.95;;
43986;SDS011;29650;47.378;8.300;2023-05-27T04:17:13;11.55;;;4.00;;
43986;SDS011;29650;47.378;8.300;2023-05-27T04:19:41;14.50;;;4.00;;
43986;SDS011;29650;47.378;8.300;2023-05-27T04:22:07;9.30;;;3.75;;
43986;SDS011;29650;47.378;8.300;2023-05-27T04:24:34;12.65;;;4.15;;
43986;SDS011;29650;47.378;8.300;2023-05-27T04:27:01;9.70;;;4.63;;
43986;SDS011;29650;47.378;8.300;2023-05-27T04:29:28;11.15;;;3.80;;
43986;SDS011;29650;47.378;8.300;2023-05-27T04:31:58;8.43;;;3.53;;
43986;SDS011;29650;47.378;8.300;2023-05-27T04:34:25;9.00;;;4.43;;
43986;SDS011;29650;47.378;8.300;2023-05-27T04:36:52;6.88;;;3.38;;
43986;SDS011;29650;47.378;8.300;2023-05-27T04:39:19;11.52;;;4.50;;
43986;SDS011;29650;47.378;8.300;2023-05-27T04:41:46;7.18;;;3.70;;
43986;SDS011;29650;47.378;8.300;2023-05-27T04:44:13;7.45;;;3.78;;
43986;SDS011;29650;47.378;8.300;2023-05-27T04:46:42;9.75;;;3.70;;
43986;SDS011;29650;47.378;8.300;2023-05-27T04:49:10;8.23;;;3.65;;
43986;SDS011;29650;47.378;8.300;2023-05-27T04:51:37;10.75;;;4.47;;
43986;SDS011;29650;47.378;8.300;2023-05-27T04:54:04;9.50;;;4.10;;
43986;SDS011;29650;47.378;8.300;2023-05-27T04:56:32;7.80;;;3.88;;
43986;SDS011;29650;47.378;8.300;2023-05-27T04:58:59;15.98;;;4.15;;
43986;SDS011;29650;47.378;8.300;2023-05-27T05:01:26;14.25;;;4.25;;
43986;SDS011;29650;47.378;8.300;2023-05-27T05:03:54;11.05;;;4.75;;
43986;SDS011;29650;47.378;8.300;2023-05-27T05:06:39;9.35;;;4.00;;
43986;SDS011;29650;47.378;8.300;2023-05-27T05:09:06;8.55;;;3.70;;
43986;SDS011;29650;47.378;8.300;2023-05-27T05:11:34;8.98;;;3.63;;
43986;SDS011;29650;47.378;8.300;2023-05-27T05:14:01;10.60;;;4.03;;
43986;SDS011;29650;47.378;8.300;2023-05-27T05:16:28;8.00;;;3.50;;
43986;SDS011;29650;47.378;8.300;2023-05-27T05:18:55;7.35;;;3.67;;
43986;SDS011;29650;47.378;8.300;2023-05-27T05:21:22;13.75;;;4.00;;
43986;SDS011;29650;47.378;8.300;2023-05-27T05:23:50;9.65;;;4.10;;
43986;SDS011;29650;47.378;8.300;2023-05-27T05:26:17;8.25;;;3.90;;
43986;SDS011;29650;47.378;8.300;2023-05-27T05:28:44;7.78;;;3.60;;
43986;SDS011;29650;47.378;8.300;2023-05-27T05:31:11;9.75;;;4.13;;
43986;SDS011;29650;47.378;8.300;2023-05-27T05:33:38;8.88;;;4.38;;
43986;SDS011;29650;47.378;8.300;2023-05-27T05:36:05;10.05;;;4.20;;
43986;SDS011;29650;47.378;8.300;2023-05-27T05:38:33;10.75;;;4.13;;
43986;SDS011;29650;47.378;8.300;2023-05-27T05:41:01;9.90;;;3.80;;
43986;SDS011;29650;47.378;8.300;2023-05-27T05:43:28;7.93;;;3.80;;
43986;SDS011;29650;47.378;8.300;2023-05-27T05:45:55;9.07;;;4.50;;
43986;SDS011;29650;47.378;8.300;2023-05-27T05:48:22;11.55;;;4.18;;
43986;SDS011;29650;47.378;8.300;2023-05-27T05:50:49;12.20;;;3.75;;
43986;SDS011;29650;47.378;8.300;2023-05-27T05:53:16;12.23;;;4.20;;
43986;SDS011;29650;47.378;8.300;2023-05-27T05:55:43;9.38;;;3.83;;
43986;SDS011;29650;47.378;8.300;2023-05-27T05:58:11;9.13;;;4.43;;
43986;SDS011;29650;47.378;8.300;2023-05-27T06:00:38;10.02;;;3.60;;
43986;SDS011;29650;47.378;8.300;2023-05-27T06:03:05;8.68;;;3.90;;
43986;SDS011;29650;47.378;8.300;2023-05-27T06:05:32;10.50;;;4.18;;
43986;SDS011;29650;47.378;8.300;2023-05-27T06:07:59;9.48;;;3.95;;
43986;SDS011;29650;47.378;8.300;2023-05-27T06:10:26;8.15;;;3.83;;
43986;SDS011;29650;47.378;8.300;2023-05-27T06:12:52;7.18;;;4.22;;
43986;SDS011;29650;47.378;8.300;2023-05-27T06:15:21;9.00;;;3.80;;
43986;SDS011;29650;47.378;8.300;2023-05-27T06:17:48;7.50;;;3.47;;
43986;SDS011;29650;47.378;8.300;2023-05-27T06:20:15;9.68;;;4.10;;
43986;SDS011;29650;47.378;8.300;2023-05-27T06:22:42;7.72;;;4.15;;
43986;SDS011;29650;47.378;8.300;2023-05-27T06:25:11;8.45;;;3.72;;
43986;SDS011;29650;47.378;8.300;2023-05-27T06:27:39;7.75;;;3.97;;
43986;SDS011;29650;47.378;8.300;2023-05-27T06:30:06;5.88;;;3.90;;
43986;SDS011;29650;47.378;8.300;2023-05-27T06:32:36;11.88;;;3.90;;
43986;SDS011;29650;47.378;8.300;2023-05-27T06:35:03;9.88;;;4.15;;
43986;SDS011;29650;47.378;8.300;2023-05-27T06:37:30;8.02;;;3.75;;
43986;SDS011;29650;47.378;8.300;2023-05-27T06:39:57;6.68;;;3.97;;
43986;SDS011;29650;47.378;8.300;2023-05-27T06:42:24;9.80;;;4.25;;
43986;SDS011;29650;47.378;8.300;2023-05-27T06:44:51;12.15;;;5.22;;
43986;SDS011;29650;47.378;8.300;2023-05-27T06:47:18;8.65;;;4.10;;
43986;SDS011;29650;47.378;8.300;2023-05-27T06:49:47;9.25;;;4.28;;
43986;SDS011;29650;47.378;8.300;2023-05-27T06:52:13;9.13;;;4.20;;
43986;SDS011;29650;47.378;8.300;2023-05-27T06:54:40;5.82;;;3.65;;
43986;SDS011;29650;47.378;8.300;2023-05-27T06:57:07;9.98;;;4.47;;
43986;SDS011;29650;47.378;8.300;2023-05-27T06:59:34;11.27;;;4.63;;
43986;SDS011;29650;47.378;8.300;2023-05-27T07:02:01;11.43;;;4.47;;
43986;SDS011;29650;47.378;8.300;2023-05-27T07:04:28;7.80;;;3.60;;
43986;SDS011;29650;47.378;8.300;2023-05-27T07:06:57;8.10;;;3.88;;
43986;SDS011;29650;47.378;8.300;2023-05-27T07:09:24;7.50;;;3.85;;
43986;SDS011;29650;47.378;8.300;2023-05-27T07:11:51;9.57;;;4.82;;
43986;SDS011;29650;47.378;8.300;2023-05-27T07:14:18;7.38;;;3.78;;
43986;SDS011;29650;47.378;8.300;2023-05-27T07:16:45;6.75;;;3.83;;
43986;SDS011;29650;47.378;8.300;2023-05-27T07:19:12;9.82;;;4.93;;
43986;SDS011;29650;47.378;8.300;2023-05-27T07:21:39;10.30;;;4.30;;
43986;SDS011;29650;47.378;8.300;2023-05-27T07:24:07;7.78;;;4.32;;
43986;SDS011;29650;47.378;8.300;2023-05-27T07:29:02;6.28;;;3.72;;
43986;SDS011;29650;47.378;8.300;2023-05-27T07:31:29;11.25;;;4.35;;
43986;SDS011;29650;47.378;8.300;2023-05-27T07:33:56;11.93;;;4.88;;
43986;SDS011;29650;47.378;8.300;2023-05-27T07:36:24;14.48;;;5.38;;
43986;SDS011;29650;47.378;8.300;2023-05-27T07:38:51;8.80;;;4.80;;
43986;SDS011;29650;47.378;8.300;2023-05-27T07:41:19;8.98;;;4.78;;
43986;SDS011;29650;47.378;8.300;2023-05-27T07:43:46;11.73;;;4.45;;
43986;SDS011;29650;47.378;8.300;2023-05-27T07:46:13;9.55;;;4.35;;
43986;SDS011;29650;47.378;8.300;2023-05-27T07:48:40;7.82;;;3.97;;
43986;SDS011;29650;47.378;8.300;2023-05-27T07:51:07;9.27;;;5.18;;
43986;SDS011;29650;47.378;8.300;2023-05-27T07:53:35;10.48;;;3.97;;
43986;SDS011;29650;47.378;8.300;2023-05-27T07:56:03;7.70;;;4.37;;
43986;SDS011;29650;47.378;8.300;2023-05-27T07:58:31;6.50;;;4.68;;
43986;SDS011;29650;47.378;8.300;2023-05-27T08:00:58;11.13;;;5.03;;
43986;SDS011;29650;47.378;8.300;2023-05-27T08:03:25;14.27;;;5.13;;
43986;SDS011;29650;47.378;8.300;2023-05-27T08:05:52;8.93;;;5.25;;
43986;SDS011;29650;47.378;8.300;2023-05-27T08:08:19;11.77;;;5.68;;
43986;SDS011;29650;47.378;8.300;2023-05-27T08:10:45;12.98;;;5.20;;
43986;SDS011;29650;47.378;8.300;2023-05-27T08:13:12;9.98;;;5.30;;
43986;SDS011;29650;47.378;8.300;2023-05-27T08:15:41;8.85;;;5.20;;
43986;SDS011;29650;47.378;8.300;2023-05-27T08:18:08;10.27;;;5.57;;
43986;SDS011;29650;47.378;8.300;2023-05-27T08:20:34;9.23;;;4.88;;
43986;SDS011;29650;47.378;8.300;2023-05-27T08:23:01;9.88;;;5.35;;
43986;SDS011;29650;47.378;8.300;2023-05-27T08:25:28;11.15;;;5.75;;
43986;SDS011;29650;47.378;8.300;2023-05-27T08:27:55;12.45;;;5.65;;
43986;SDS011;29650;47.378;8.300;2023-05-27T08:30:26;14.27;;;5.40;;
43986;SDS011;29650;47.378;8.300;2023-05-27T08:32:55;10.80;;;5.45;;
43986;SDS011;29650;47.378;8.300;2023-05-27T08:35:22;9.10;;;5.07;;
43986;SDS011;29650;47.378;8.300;2023-05-27T08:37:49;8.95;;;5.22;;
43986;SDS011;29650;47.378;8.300;2023-05-27T08:40:17;11.85;;;5.47;;
43986;SDS011;29650;47.378;8.300;2023-05-27T08:42:45;10.20;;;5.13;;
43986;SDS011;29650;47.378;8.300;2023-05-27T08:45:13;13.57;;;5.80;;
43986;SDS011;29650;47.378;8.300;2023-05-27T08:47:40;9.98;;;5.40;;
43986;SDS011;29650;47.378;8.300;2023-05-27T08:50:09;9.63;;;5.22;;
43986;SDS011;29650;47.378;8.300;2023-05-27T08:52:37;10.60;;;5.65;;
43986;SDS011;29650;47.378;8.300;2023-05-27T08:55:14;13.30;;;5.47;;
43986;SDS011;29650;47.378;8.300;2023-05-27T08:57:42;15.50;;;5.47;;
43986;SDS011;29650;47.378;8.300;2023-05-27T09:00:13;9.35;;;4.55;;
43986;SDS011;29650;47.378;8.300;2023-05-27T09:02:40;9.75;;;4.82;;
43986;SDS011;29650;47.378;8.300;2023-05-27T09:05:09;11.52;;;4.75;;
43986;SDS011;29650;47.378;8.300;2023-05-27T09:07:37;12.70;;;5.75;;
43986;SDS011;29650;47.378;8.300;2023-05-27T09:10:05;11.82;;;5.47;;
43986;SDS011;29650;47.378;8.300;2023-05-27T09:12:32;15.00;;;6.25;;
43986;SDS011;29650;47.378;8.300;2023-05-27T09:15:00;10.82;;;5.60;;
43986;SDS011;29650;47.378;8.300;2023-05-27T09:17:27;14.00;;;5.80;;
43986;SDS011;29650;47.378;8.300;2023-05-27T09:19:54;12.27;;;5.38;;
43986;SDS011;29650;47.378;8.300;2023-05-27T09:22:23;8.32;;;5.28;;
43986;SDS011;29650;47.378;8.300;2023-05-27T09:24:52;11.25;;;5.20;;
43986;SDS011;29650;47.378;8.300;2023-05-27T09:27:23;12.43;;;5.95;;
43986;SDS011;29650;47.378;8.300;2023-05-27T09:29:51;9.88;;;5.35;;
43986;SDS011;29650;47.378;8.300;2023-05-27T09:32:24;11.18;;;5.78;;
43986;SDS011;29650;47.378;8.300;2023-05-27T09:34:52;9.82;;;5.88;;
43986;SDS011;29650;47.378;8.300;2023-05-27T09:37:19;10.68;;;5.43;;
43986;SDS011;29650;47.378;8.300;2023-05-27T09:39:48;9.57;;;5.50;;
43986;SDS011;29650;47.378;8.300;2023-05-27T09:42:18;8.07;;;5.00;;
43986;SDS011;29650;47.378;8.300;2023-05-27T09:44:46;9.68;;;5.80;;
43986;SDS011;29650;47.378;8.300;2023-05-27T09:47:15;10.67;;;5.23;;
43986;SDS011;29650;47.378;8.300;2023-05-27T09:49:45;11.68;;;5.10;;
43986;SDS011;29650;47.378;8.300;2023-05-27T09:52:15;10.95;;;5.25;;
43986;SDS011;29650;47.378;8.300;2023-05-27T09:54:47;7.95;;;4.95;;
43986;SDS011;29650;47.378;8.300;2023-05-27T09:57:15;8.00;;;4.50;;
43986;SDS011;29650;47.378;8.300;2023-05-27T09:59:45;10.88;;;4.72;;
43986;SDS011;29650;47.378;8.300;2023-05-27T10:02:13;9.73;;;4.97;;
43986;SDS011;29650;47.378;8.300;2023-05-27T10:04:44;13.15;;;5.43;;
43986;SDS011;29650;47.378;8.300;2023-05-27T10:07:13;9.40;;;5.07;;
43986;SDS011;29650;47.378;8.300;2023-05-27T10:09:44;10.00;;;5.50;;
43986;SDS011;29650;47.378;8.300;2023-05-27T10:12:13;8.35;;;4.40;;
43986;SDS011;29650;47.378;8.300;2023-05-27T10:17:09;8.88;;;5.00;;
43986;SDS011;29650;47.378;8.300;2023-05-27T10:19:36;10.48;;;4.82;;
43986;SDS011;29650;47.378;8.300;2023-05-27T10:22:07;11.98;;;4.75;;
43986;SDS011;29650;47.378;8.300;2023-05-27T10:24:35;9.88;;;4.70;;
43986;SDS011;29650;47.378;8.300;2023-05-27T10:27:02;9.82;;;4.85;;
43986;SDS011;29650;47.378;8.300;2023-05-27T10:29:38;10.00;;;5.03;;
43986;SDS011;29650;47.378;8.300;2023-05-27T10:32:05;9.77;;;4.72;;
43986;SDS011;29650;47.378;8.300;2023-05-27T10:34:35;10.00;;;4.93;;
43986;SDS011;29650;47.378;8.300;2023-05-27T10:37:03;9.57;;;4.25;;
43986;SDS011;29650;47.378;8.300;2023-05-27T10:39:30;8.88;;;4.78;;
43986;SDS011;29650;47.378;8.300;2023-05-27T10:41:57;8.23;;;4.40;;
43986;SDS011;29650;47.378;8.300;2023-05-27T10:44:28;6.65;;;4.60;;
43986;SDS011;29650;47.378;8.300;2023-05-27T10:47:02;7.38;;;4.18;;
43986;SDS011;29650;47.378;8.300;2023-05-27T10:49:33;7.65;;;4.32;;
43986;SDS011;29650;47.378;8.300;2023-05-27T10:52:07;9.98;;;4.22;;
43986;SDS011;29650;47.378;8.300;2023-05-27T10:54:37;9.68;;;4.25;;
43986;SDS011;29650;47.378;8.300;2023-05-27T10:57:05;9.23;;;4.25;;
43986;SDS011;29650;47.378;8.300;2023-05-27T10:59:36;9.50;;;4.35;;
43986;SDS011;29650;47.378;8.300;2023-05-27T11:02:08;9.85;;;4.47;;
43986;SDS011;29650;47.378;8.300;2023-05-27T11:04:35;8.52;;;4.03;;
43986;SDS011;29650;47.378;8.300;2023-05-27T11:07:02;5.88;;;4.28;;
43986;SDS011;29650;47.378;8.300;2023-05-27T11:09:30;12.20;;;4.38;;
43986;SDS011;29650;47.378;8.300;2023-05-27T11:12:00;7.28;;;4.03;;
43986;SDS011;29650;47.378;8.300;2023-05-27T11:14:28;5.72;;;3.75;;
43986;SDS011;29650;47.378;8.300;2023-05-27T11:16:56;9.88;;;4.80;;
43986;SDS011;29650;47.378;8.300;2023-05-27T11:19:24;11.65;;;6.65;;
43986;SDS011;29650;47.378;8.300;2023-05-27T11:21:51;12.18;;;6.45;;
43986;SDS011;29650;47.378;8.300;2023-05-27T11:24:18;7.00;;;4.50;;
43986;SDS011;29650;47.378;8.300;2023-05-27T11:26:47;6.40;;;3.83;;
43986;SDS011;29650;47.378;8.300;2023-05-27T11:29:16;8.70;;;4.55;;
43986;SDS011;29650;47.378;8.300;2023-05-27T11:31:45;13.70;;;4.40;;
43986;SDS011;29650;47.378;8.300;2023-05-27T11:34:13;8.98;;;4.40;;
43986;SDS011;29650;47.378;8.300;2023-05-27T11:36:43;10.15;;;4.10;;
43986;SDS011;29650;47.378;8.300;2023-05-27T11:39:11;10.85;;;4.38;;
43986;SDS011;29650;47.378;8.300;2023-05-27T11:41:51;7.82;;;4.55;;
43986;SDS011;29650;47.378;8.300;2023-05-27T11:44:18;6.93;;;4.57;;
43986;SDS011;29650;47.378;8.300;2023-05-27T11:46:47;7.87;;;4.13;;
43986;SDS011;29650;47.378;8.300;2023-05-27T11:49:15;9.30;;;4.50;;
43986;SDS011;29650;47.378;8.300;2023-05-27T11:51:45;8.73;;;4.83;;
43986;SDS011;29650;47.378;8.300;2023-05-27T11:54:17;6.90;;;4.32;;
43986;SDS011;29650;47.378;8.300;2023-05-27T11:56:45;8.65;;;4.50;;
43986;SDS011;29650;47.378;8.300;2023-05-27T11:59:12;9.73;;;4.63;;
43986;SDS011;29650;47.378;8.300;2023-05-27T12:01:39;13.35;;;4.75;;
43986;SDS011;29650;47.378;8.300;2023-05-27T12:04:06;7.38;;;4.53;;
43986;SDS011;29650;47.378;8.300;2023-05-27T12:06:33;9.48;;;4.80;;
43986;SDS011;29650;47.378;8.300;2023-05-27T12:09:03;5.30;;;4.13;;
43986;SDS011;29650;47.378;8.300;2023-05-27T12:11:32;13.77;;;4.32;;
43986;SDS011;29650;47.378;8.300;2023-05-27T12:13:58;11.32;;;5.03;;
43986;SDS011;29650;47.378;8.300;2023-05-27T12:16:26;8.77;;;4.28;;
43986;SDS011;29650;47.378;8.300;2023-05-27T12:18:53;7.00;;;4.43;;
43986;SDS011;29650;47.378;8.300;2023-05-27T12:21:20;12.15;;;5.38;;
43986;SDS011;29650;47.378;8.300;2023-05-27T12:23:47;9.02;;;4.55;;
43986;SDS011;29650;47.378;8.300;2023-05-27T12:26:15;6.75;;;4.25;;
43986;SDS011;29650;47.378;8.300;2023-05-27T12:28:43;8.57;;;4.63;;
43986;SDS011;29650;47.378;8.300;2023-05-27T12:31:10;6.25;;;4.82;;
43986;SDS011;29650;47.378;8.300;2023-05-27T12:33:37;8.60;;;4.53;;
43986;SDS011;29650;47.378;8.300;2023-05-27T12:36:04;8.55;;;4.90;;
43986;SDS011;29650;47.378;8.300;2023-05-27T12:38:31;8.80;;;4.43;;
43986;SDS011;29650;47.378;8.300;2023-05-27T12:40:58;9.63;;;4.22;;
43986;SDS011;29650;47.378;8.300;2023-05-27T12:43:27;7.20;;;4.50;;
43986;SDS011;29650;47.378;8.300;2023-05-27T12:45:53;5.63;;;4.10;;
43986;SDS011;29650;47.378;8.300;2023-05-27T12:48:21;6.65;;;4.45;;
43986;SDS011;29650;47.378;8.300;2023-05-27T12:50:48;9.45;;;4.03;;
43986;SDS011;29650;47.378;8.300;2023-05-27T12:53:15;10.25;;;4.57;;
43986;SDS011;29650;47.378;8.300;2023-05-27T12:55:43;9.60;;;4.38;;
43986;SDS011;29650;47.378;8.300;2023-05-27T12:58:10;8.93;;;4.68;;
43986;SDS011;29650;47.378;8.300;2023-05-27T13:00:38;6.13;;;4.18;;
43986;SDS011;29650;47.378;8.300;2023-05-27T13:03:06;6.38;;;3.95;;
43986;SDS011;29650;47.378;8.300;2023-05-27T13:05:33;7.90;;;4.22;;
43986;SDS011;29650;47.378;8.300;2023-05-27T13:08:00;8.75;;;4.50;;
43986;SDS011;29650;47.378;8.300;2023-05-27T13:10:29;9.60;;;4.22;;
43986;SDS011;29650;47.378;8.300;2023-05-27T13:12:57;9.52;;;4.30;;
43986;SDS011;29650;47.378;8.300;2023-05-27T13:15:25;6.32;;;4.05;;
43986;SDS011;29650;47.378;8.300;2023-05-27T13:17:53;7.82;;;4.30;;
43986;SDS011;29650;47.378;8.300;2023-05-27T13:20:21;6.43;;;3.78;;
43986;SDS011;29650;47.378;8.300;2023-05-27T13:22:53;8.45;;;4.35;;
43986;SDS011;29650;47.378;8.300;2023-05-27T13:25:24;6.82;;;4.40;;
43986;SDS011;29650;47.378;8.300;2023-05-27T13:27:52;6.10;;;3.80;;
43986;SDS011;29650;47.378;8.300;2023-05-27T13:30:19;10.52;;;4.07;;
43986;SDS011;29650;47.378;8.300;2023-05-27T13:32:46;9.20;;;4.22;;
43986;SDS011;29650;47.378;8.300;2023-05-27T13:35:15;9.82;;;3.65;;
43986;SDS011;29650;47.378;8.300;2023-05-27T13:37:42;5.63;;;3.70;;
43986;SDS011;29650;47.378;8.300;2023-05-27T13:40:10;6.25;;;3.83;;
43986;SDS011;29650;47.378;8.300;2023-05-27T13:42:37;7.40;;;4.00;;
43986;SDS011;29650;47.378;8.300;2023-05-27T13:45:06;4.78;;;3.47;;
43986;SDS011;29650;47.378;8.300;2023-05-27T13:47:33;6.32;;;3.70;;
43986;SDS011;29650;47.378;8.300;2023-05-27T13:50:00;5.40;;;3.78;;
43986;SDS011;29650;47.378;8.300;2023-05-27T13:52:28;5.07;;;3.85;;
43986;SDS011;29650;47.378;8.300;2023-05-27T13:54:55;7.50;;;3.83;;
43986;SDS011;29650;47.378;8.300;2023-05-27T13:57:22;7.68;;;3.90;;
43986;SDS011;29650;47.378;8.300;2023-05-27T13:59:49;7.75;;;3.97;;
43986;SDS011;29650;47.378;8.300;2023-05-27T14:02:16;7.38;;;3.97;;
43986;SDS011;29650;47.378;8.300;2023-05-27T14:04:43;6.22;;;3.95;;
43986;SDS011;29650;47.378;8.300;2023-05-27T14:07:10;6.57;;;3.95;;
43986;SDS011;29650;47.378;8.300;2023-05-27T14:09:38;6.20;;;4.15;;
43986;SDS011;29650;47.378;8.300;2023-05-27T14:12:06;4.53;;;3.53;;
43986;SDS011;29650;47.378;8.300;2023-05-27T14:14:33;9.90;;;4.07;;
43986;SDS011;29650;47.378;8.300;2023-05-27T14:17:01;5.15;;;3.78;;
43986;SDS011;29650;47.378;8.300;2023-05-27T14:19:28;7.47;;;4.20;;
43986;SDS011;29650;47.378;8.300;2023-05-27T14:21:55;5.45;;;3.78;;
43986;SDS011;29650;47.378;8.300;2023-05-27T14:24:21;7.30;;;3.63;;
43986;SDS011;29650;47.378;8.300;2023-05-27T14:26:50;6.35;;;3.78;;
43986;SDS011;29650;47.378;8.300;2023-05-27T14:29:17;6.15;;;3.78;;
43986;SDS011;29650;47.378;8.300;2023-05-27T14:31:43;4.88;;;3.72;;
43986;SDS011;29650;47.378;8.300;2023-05-27T14:34:10;8.77;;;3.88;;
43986;SDS011;29650;47.378;8.300;2023-05-27T14:36:37;9.80;;;4.40;;
43986;SDS011;29650;47.378;8.300;2023-05-27T14:39:05;4.35;;;3.38;;
43986;SDS011;29650;47.378;8.300;2023-05-27T14:41:33;6.22;;;3.47;;
43986;SDS011;29650;47.378;8.300;2023-05-27T14:44:01;7.72;;;3.30;;
43986;SDS011;29650;47.378;8.300;2023-05-27T14:46:29;6.93;;;3.53;;
43986;SDS011;29650;47.378;8.300;2023-05-27T14:48:55;6.07;;;3.65;;
43986;SDS011;29650;47.378;8.300;2023-05-27T14:51:23;6.40;;;3.42;;
43986;SDS011;29650;47.378;8.300;2023-05-27T14:53:49;5.25;;;3.53;;